EWG61X EDDH-LFPG
Flight info
| Callsign | EWG61X |
|---|---|
| Flight time | 1h 6m |
| Altitude | 38000 |
| Route | WSN5C WSN N125 ITMIZ DCT EMMUN DCT BUB DCT NILEM/N0431F390 DCT MOPIL |
| Aircraft | A20N/M-SDE2E3FGHIRWXY/LB1 |
Departure
| Time | 2026-05-08 21:01 |
|---|---|
| Airport | Hamburg Helmut Schmidt Airport (EDDH) |
Arrival
| Time | 2026-05-08 22:08 |
|---|---|
| Airport | Charles de Gaulle International Airport (LFPG) |
| Time | Latitude | Longitude | Altitude | Speed | Heading |
|---|---|---|---|---|---|
| 2026-05-08 20:10 | 53.63269 | 10.00070 | 50 ft | 0 kts | 323° |
| 2026-05-08 20:32 | 53.63262 | 10.00078 | 50 ft | 4 kts | 323° |
| 2026-05-08 20:32 | 53.63241 | 10.00105 | 49 ft | 2 kts | 323° |
| 2026-05-08 20:33 | 53.63226 | 10.00120 | 50 ft | 4 kts | 23° |
| 2026-05-08 20:33 | 53.63208 | 10.00095 | 47 ft | 2 kts | 50° |
| 2026-05-08 20:33 | 53.63207 | 10.00093 | 47 ft | 0 kts | 50° |
| 2026-05-08 20:37 | 53.63208 | 10.00095 | 47 ft | 1 kts | 50° |
| 2026-05-08 20:37 | 53.63221 | 10.00121 | 50 ft | 4 kts | 53° |
| 2026-05-08 20:37 | 53.63212 | 10.00169 | 50 ft | 6 kts | 147° |
| 2026-05-08 20:38 | 53.63165 | 10.00185 | 47 ft | 8 kts | 174° |
| 2026-05-08 20:38 | 53.63116 | 10.00193 | 50 ft | 6 kts | 176° |
| 2026-05-08 20:38 | 53.63072 | 10.00182 | 50 ft | 8 kts | 203° |
| 2026-05-08 20:38 | 53.63017 | 10.00127 | 50 ft | 8 kts | 212° |
| 2026-05-08 20:39 | 53.62970 | 10.00077 | 49 ft | 5 kts | 212° |
| 2026-05-08 20:39 | 53.62940 | 10.00041 | 49 ft | 7 kts | 222° |
| 2026-05-08 20:39 | 53.62923 | 9.99999 | 50 ft | 2 kts | 242° |
| 2026-05-08 20:39 | 53.62919 | 9.99987 | 50 ft | 0 kts | 242° |
| 2026-05-08 20:43 | 53.62916 | 9.99977 | 50 ft | 3 kts | 242° |
| 2026-05-08 20:43 | 53.62899 | 9.99923 | 50 ft | 6 kts | 243° |
| 2026-05-08 20:43 | 53.62895 | 9.99909 | 50 ft | 0 kts | 243° |
| 2026-05-08 20:45 | 53.62885 | 9.99877 | 49 ft | 6 kts | 243° |
| 2026-05-08 20:45 | 53.62867 | 9.99778 | 47 ft | 11 kts | 275° |
| 2026-05-08 20:46 | 53.62921 | 9.99697 | 49 ft | 14 kts | 332° |
| 2026-05-08 20:46 | 53.63020 | 9.99612 | 48 ft | 18 kts | 332° |
| 2026-05-08 20:46 | 53.63131 | 9.99515 | 49 ft | 17 kts | 332° |
| 2026-05-08 20:46 | 53.63219 | 9.99438 | 49 ft | 12 kts | 333° |
| 2026-05-08 20:47 | 53.63266 | 9.99398 | 50 ft | 7 kts | 335° |
| 2026-05-08 20:47 | 53.63333 | 9.99425 | 48 ft | 14 kts | 45° |
| 2026-05-08 20:47 | 53.63406 | 9.99569 | 50 ft | 18 kts | 50° |
| 2026-05-08 20:47 | 53.63485 | 9.99724 | 50 ft | 16 kts | 49° |
| 2026-05-08 20:48 | 53.63553 | 9.99858 | 50 ft | 15 kts | 49° |
| 2026-05-08 20:48 | 53.63598 | 9.99963 | 51 ft | 9 kts | 66° |
| 2026-05-08 20:48 | 53.63581 | 10.00056 | 51 ft | 11 kts | 137° |
| 2026-05-08 20:48 | 53.63550 | 10.00102 | 50 ft | 4 kts | 140° |
| 2026-05-08 20:49 | 53.63542 | 10.00114 | 50 ft | 0 kts | 139° |
| 2026-05-08 20:49 | 53.63526 | 10.00132 | 50 ft | 5 kts | 151° |
| 2026-05-08 20:50 | 53.63474 | 10.00137 | 50 ft | 10 kts | 197° |
| 2026-05-08 20:50 | 53.63416 | 10.00041 | 50 ft | 14 kts | 230° |
| 2026-05-08 20:50 | 53.63348 | 9.99904 | 50 ft | 16 kts | 230° |
| 2026-05-08 20:50 | 53.63286 | 9.99780 | 50 ft | 10 kts | 225° |
| 2026-05-08 20:51 | 53.63213 | 9.99772 | 50 ft | 7 kts | 154° |
| 2026-05-08 20:51 | 53.63212 | 9.99773 | 50 ft | 0 kts | 154° |
| 2026-05-08 20:52 | 53.63195 | 9.99787 | 47 ft | 6 kts | 153° |
| 2026-05-08 20:52 | 53.63144 | 9.99831 | 49 ft | 10 kts | 153° |
| 2026-05-08 20:52 | 53.63075 | 9.99891 | 49 ft | 12 kts | 153° |
| 2026-05-08 20:52 | 53.63006 | 9.99951 | 50 ft | 11 kts | 153° |
| 2026-05-08 20:53 | 53.62945 | 10.00002 | 49 ft | 9 kts | 154° |
| 2026-05-08 20:53 | 53.62891 | 10.00037 | 50 ft | 8 kts | 174° |
| 2026-05-08 20:53 | 53.62845 | 10.00004 | 48 ft | 7 kts | 211° |
| 2026-05-08 20:53 | 53.62820 | 9.99978 | 50 ft | 0 kts | 211° |
| 2026-05-08 20:54 | 53.62812 | 9.99971 | 50 ft | 4 kts | 211° |
| 2026-05-08 20:55 | 53.62768 | 9.99929 | 48 ft | 10 kts | 208° |
| 2026-05-08 20:55 | 53.62698 | 9.99865 | 47 ft | 11 kts | 208° |
| 2026-05-08 20:55 | 53.62643 | 9.99773 | 49 ft | 12 kts | 245° |
| 2026-05-08 20:55 | 53.62623 | 9.99618 | 50 ft | 15 kts | 259° |
| 2026-05-08 20:56 | 53.62601 | 9.99425 | 50 ft | 17 kts | 259° |
| 2026-05-08 20:56 | 53.62581 | 9.99251 | 50 ft | 17 kts | 259° |
| 2026-05-08 20:56 | 53.62573 | 9.99184 | 50 ft | 18 kts | 259° |
| 2026-05-08 20:56 | 53.62563 | 9.99091 | 47 ft | 19 kts | 258° |
| 2026-05-08 20:57 | 53.62544 | 9.98922 | 50 ft | 21 kts | 259° |
| 2026-05-08 20:57 | 53.62514 | 9.98665 | 50 ft | 19 kts | 259° |
| 2026-05-08 20:57 | 53.62490 | 9.98457 | 50 ft | 17 kts | 259° |
| 2026-05-08 20:57 | 53.62467 | 9.98260 | 50 ft | 18 kts | 257° |
| 2026-05-08 20:58 | 53.62411 | 9.98054 | 48 ft | 18 kts | 234° |
| 2026-05-08 20:58 | 53.62335 | 9.97898 | 50 ft | 18 kts | 231° |
| 2026-05-08 20:58 | 53.62257 | 9.97742 | 50 ft | 17 kts | 230° |
| 2026-05-08 20:58 | 53.62199 | 9.97622 | 50 ft | 11 kts | 233° |
| 2026-05-08 20:59 | 53.62180 | 9.97495 | 50 ft | 9 kts | 280° |
| 2026-05-08 20:59 | 53.62206 | 9.97415 | 50 ft | 0 kts | 313° |
| 2026-05-08 20:59 | 53.62216 | 9.97402 | 50 ft | 5 kts | 321° |
| 2026-05-08 21:00 | 53.62264 | 9.97370 | 45 ft | 10 kts | 351° |
| 2026-05-08 21:00 | 53.62338 | 9.97413 | 46 ft | 12 kts | 43° |
| 2026-05-08 21:00 | 53.62377 | 9.97489 | 47 ft | 0 kts | 50° |
| 2026-05-08 21:00 | 53.62446 | 9.97626 | 47 ft | 55 kts | 50° |
| 2026-05-08 21:01 | 53.62878 | 9.98503 | 49 ft | 136 kts | 50° |
| 2026-05-08 21:01 | 53.63445 | 9.99653 | 258 ft | 170 kts | 51° |
| 2026-05-08 21:01 | 53.64056 | 10.00904 | 798 ft | 180 kts | 51° |
| 2026-05-08 21:01 | 53.64912 | 10.02643 | 1532 ft | 204 kts | 52° |
| 2026-05-08 21:02 | 53.65849 | 10.04540 | 2621 ft | 214 kts | 52° |
| 2026-05-08 21:02 | 53.66816 | 10.06506 | 3658 ft | 222 kts | 52° |
| 2026-05-08 21:02 | 53.67822 | 10.08549 | 4381 ft | 240 kts | 51° |
| 2026-05-08 21:02 | 53.69284 | 10.10402 | 4533 ft | 289 kts | 25° |
| 2026-05-08 21:03 | 53.71384 | 10.11107 | 4757 ft | 328 kts | 359° |
| 2026-05-08 21:03 | 53.73647 | 10.10290 | 5151 ft | 344 kts | 337° |
| 2026-05-08 21:03 | 53.75638 | 10.08029 | 5538 ft | 348 kts | 315° |
| 2026-05-08 21:03 | 53.77004 | 10.04630 | 5918 ft | 351 kts | 292° |
| 2026-05-08 21:04 | 53.77526 | 10.00596 | 6319 ft | 352 kts | 270° |
| 2026-05-08 21:04 | 53.77139 | 9.96582 | 6703 ft | 353 kts | 249° |
| 2026-05-08 21:04 | 53.75886 | 9.93019 | 7081 ft | 355 kts | 227° |
| 2026-05-08 21:04 | 53.74246 | 9.89884 | 7450 ft | 356 kts | 230° |
| 2026-05-08 21:05 | 53.72813 | 9.86421 | 7833 ft | 359 kts | 238° |
| 2026-05-08 21:05 | 53.71622 | 9.82760 | 8215 ft | 360 kts | 243° |
| 2026-05-08 21:05 | 53.70447 | 9.78983 | 8600 ft | 363 kts | 240° |
| 2026-05-08 21:05 | 53.69194 | 9.75280 | 8996 ft | 364 kts | 239° |
| 2026-05-08 21:06 | 53.68066 | 9.71991 | 9333 ft | 366 kts | 239° |
| 2026-05-08 21:06 | 53.66810 | 9.68302 | 9736 ft | 368 kts | 239° |
| 2026-05-08 21:06 | 53.65539 | 9.64532 | 10137 ft | 369 kts | 240° |
| 2026-05-08 21:06 | 53.64270 | 9.60744 | 10500 ft | 370 kts | 240° |
| 2026-05-08 21:07 | 53.63011 | 9.56977 | 10869 ft | 372 kts | 240° |
| 2026-05-08 21:07 | 53.61735 | 9.53160 | 11237 ft | 373 kts | 240° |
| 2026-05-08 21:07 | 53.60460 | 9.49354 | 11605 ft | 374 kts | 240° |
| 2026-05-08 21:07 | 53.59171 | 9.45510 | 11987 ft | 376 kts | 240° |
| 2026-05-08 21:08 | 53.57896 | 9.41715 | 12376 ft | 377 kts | 240° |
| 2026-05-08 21:08 | 53.56595 | 9.37849 | 12771 ft | 379 kts | 241° |
| 2026-05-08 21:08 | 53.55286 | 9.33966 | 13160 ft | 381 kts | 241° |
| 2026-05-08 21:08 | 53.53986 | 9.30115 | 13569 ft | 382 kts | 241° |
| 2026-05-08 21:09 | 53.52664 | 9.26205 | 13968 ft | 384 kts | 241° |
| 2026-05-08 21:09 | 53.51344 | 9.22306 | 14321 ft | 386 kts | 241° |
| 2026-05-08 21:09 | 53.50005 | 9.18363 | 14681 ft | 388 kts | 241° |
| 2026-05-08 21:09 | 53.48663 | 9.14412 | 15053 ft | 390 kts | 241° |
| 2026-05-08 21:10 | 53.47323 | 9.10477 | 15418 ft | 392 kts | 241° |
| 2026-05-08 21:10 | 53.45966 | 9.06496 | 15795 ft | 394 kts | 241° |
| 2026-05-08 21:10 | 53.44592 | 9.02472 | 16177 ft | 396 kts | 241° |
| 2026-05-08 21:10 | 53.43220 | 8.98460 | 16561 ft | 398 kts | 241° |
| 2026-05-08 21:11 | 53.41834 | 8.94418 | 16947 ft | 399 kts | 241° |
| 2026-05-08 21:11 | 53.40459 | 8.90410 | 17339 ft | 401 kts | 241° |
| 2026-05-08 21:11 | 53.39052 | 8.86317 | 17747 ft | 403 kts | 241° |
| 2026-05-08 21:11 | 53.37660 | 8.82275 | 18151 ft | 406 kts | 241° |
| 2026-05-08 21:12 | 53.36240 | 8.78160 | 18550 ft | 408 kts | 241° |
| 2026-05-08 21:12 | 53.34811 | 8.74024 | 18910 ft | 409 kts | 241° |
| 2026-05-08 21:12 | 53.33393 | 8.69925 | 19262 ft | 411 kts | 241° |
| 2026-05-08 21:12 | 53.31943 | 8.65743 | 19631 ft | 413 kts | 241° |
| 2026-05-08 21:13 | 53.30509 | 8.61614 | 20005 ft | 415 kts | 241° |
| 2026-05-08 21:13 | 53.29050 | 8.57420 | 20374 ft | 417 kts | 241° |
| 2026-05-08 21:13 | 53.27595 | 8.53240 | 20750 ft | 419 kts | 242° |
| 2026-05-08 21:13 | 53.26305 | 8.48857 | 21134 ft | 421 kts | 249° |
| 2026-05-08 21:14 | 53.25343 | 8.44218 | 21523 ft | 422 kts | 253° |
| 2026-05-08 21:14 | 53.24473 | 8.39527 | 21919 ft | 425 kts | 253° |
| 2026-05-08 21:14 | 53.23598 | 8.34836 | 22313 ft | 427 kts | 253° |
| 2026-05-08 21:14 | 53.22703 | 8.30077 | 22724 ft | 430 kts | 253° |
| 2026-05-08 21:15 | 53.21798 | 8.25291 | 23141 ft | 432 kts | 253° |
| 2026-05-08 21:15 | 53.20892 | 8.20525 | 23552 ft | 435 kts | 253° |
| 2026-05-08 21:15 | 53.19970 | 8.15686 | 23937 ft | 438 kts | 253° |
| 2026-05-08 21:15 | 53.19038 | 8.10806 | 24290 ft | 440 kts | 253° |
| 2026-05-08 21:16 | 53.18122 | 8.05973 | 24643 ft | 443 kts | 254° |
| 2026-05-08 21:16 | 53.17196 | 8.01053 | 25018 ft | 445 kts | 254° |
| 2026-05-08 21:16 | 53.16268 | 7.96126 | 25376 ft | 448 kts | 254° |
| 2026-05-08 21:16 | 53.15334 | 7.91196 | 25741 ft | 451 kts | 253° |
| 2026-05-08 21:17 | 53.14056 | 7.86370 | 26110 ft | 456 kts | 242° |
| 2026-05-08 21:17 | 53.12200 | 7.82102 | 26493 ft | 463 kts | 230° |
| 2026-05-08 21:17 | 53.09837 | 7.78423 | 26880 ft | 468 kts | 221° |
| 2026-05-08 21:17 | 53.07256 | 7.74997 | 27278 ft | 471 kts | 220° |
| 2026-05-08 21:18 | 53.04693 | 7.71575 | 27671 ft | 474 kts | 221° |
| 2026-05-08 21:18 | 53.02188 | 7.68081 | 28069 ft | 475 kts | 223° |
| 2026-05-08 21:18 | 52.99674 | 7.64448 | 28481 ft | 476 kts | 223° |
| 2026-05-08 21:18 | 52.97184 | 7.60776 | 28889 ft | 477 kts | 224° |
| 2026-05-08 21:19 | 52.94740 | 7.57145 | 29305 ft | 478 kts | 224° |
| 2026-05-08 21:19 | 52.92255 | 7.53448 | 29729 ft | 478 kts | 224° |
| 2026-05-08 21:19 | 52.89766 | 7.49753 | 30163 ft | 478 kts | 224° |
| 2026-05-08 21:19 | 52.87306 | 7.46109 | 30544 ft | 479 kts | 224° |
| 2026-05-08 21:20 | 52.84811 | 7.42425 | 30910 ft | 479 kts | 224° |
| 2026-05-08 21:20 | 52.82397 | 7.38870 | 31270 ft | 479 kts | 224° |
| 2026-05-08 21:20 | 52.79919 | 7.35226 | 31643 ft | 480 kts | 224° |
| 2026-05-08 21:20 | 52.77409 | 7.31541 | 31964 ft | 480 kts | 224° |
| 2026-05-08 21:21 | 52.74930 | 7.27907 | 32063 ft | 482 kts | 224° |
| 2026-05-08 21:21 | 52.69894 | 7.20545 | 32167 ft | 481 kts | 224° |
| 2026-05-08 21:22 | 52.64892 | 7.13252 | 32166 ft | 482 kts | 224° |
| 2026-05-08 21:22 | 52.59860 | 7.05941 | 32160 ft | 482 kts | 224° |
| 2026-05-08 21:23 | 52.54840 | 6.98671 | 32158 ft | 483 kts | 224° |
| 2026-05-08 21:23 | 52.49802 | 6.91397 | 32158 ft | 483 kts | 224° |
| 2026-05-08 21:24 | 52.44741 | 6.84113 | 32159 ft | 483 kts | 224° |
| 2026-05-08 21:24 | 52.39696 | 6.76875 | 32159 ft | 484 kts | 224° |
| 2026-05-08 21:25 | 52.34603 | 6.69592 | 32154 ft | 484 kts | 224° |
| 2026-05-08 21:25 | 52.29544 | 6.62380 | 32153 ft | 485 kts | 224° |
| 2026-05-08 21:26 | 52.24440 | 6.55127 | 32153 ft | 485 kts | 224° |
| 2026-05-08 21:26 | 52.19360 | 6.47931 | 32152 ft | 485 kts | 224° |
| 2026-05-08 21:27 | 52.14261 | 6.40730 | 32150 ft | 486 kts | 224° |
| 2026-05-08 21:27 | 52.09158 | 6.33547 | 32150 ft | 486 kts | 224° |
| 2026-05-08 21:28 | 52.04019 | 6.26335 | 32152 ft | 486 kts | 224° |
| 2026-05-08 21:28 | 51.98901 | 6.19176 | 32150 ft | 487 kts | 224° |
| 2026-05-08 21:29 | 51.93765 | 6.12013 | 32457 ft | 487 kts | 224° |
| 2026-05-08 21:29 | 51.91181 | 6.08421 | 32852 ft | 486 kts | 224° |
| 2026-05-08 21:29 | 51.88642 | 6.04893 | 33019 ft | 486 kts | 224° |
| 2026-05-08 21:30 | 51.83611 | 5.97921 | 33147 ft | 486 kts | 224° |
| 2026-05-08 21:30 | 51.78477 | 5.90827 | 33130 ft | 487 kts | 224° |
| 2026-05-08 21:31 | 51.73336 | 5.83746 | 33130 ft | 487 kts | 224° |
| 2026-05-08 21:31 | 51.68195 | 5.76687 | 33130 ft | 487 kts | 224° |
| 2026-05-08 21:32 | 51.63022 | 5.69606 | 33129 ft | 487 kts | 224° |
| 2026-05-08 21:32 | 51.57854 | 5.62555 | 33127 ft | 487 kts | 224° |
| 2026-05-08 21:33 | 51.52661 | 5.55491 | 33128 ft | 488 kts | 224° |
| 2026-05-08 21:33 | 51.47490 | 5.48479 | 33127 ft | 488 kts | 224° |
| 2026-05-08 21:34 | 51.42319 | 5.41489 | 33127 ft | 488 kts | 224° |
| 2026-05-08 21:34 | 51.37117 | 5.34477 | 33127 ft | 489 kts | 224° |
| 2026-05-08 21:35 | 51.31893 | 5.27459 | 33126 ft | 489 kts | 224° |
| 2026-05-08 21:35 | 51.26690 | 5.20489 | 33127 ft | 489 kts | 224° |
| 2026-05-08 21:36 | 51.21472 | 5.13520 | 33123 ft | 489 kts | 224° |
| 2026-05-08 21:36 | 51.16252 | 5.06571 | 33121 ft | 489 kts | 224° |
| 2026-05-08 21:37 | 51.11036 | 4.99647 | 33123 ft | 489 kts | 224° |
| 2026-05-08 21:37 | 51.05786 | 4.92701 | 33120 ft | 489 kts | 224° |
| 2026-05-08 21:38 | 51.00565 | 4.85813 | 33122 ft | 489 kts | 224° |
| 2026-05-08 21:38 | 50.95334 | 4.78932 | 33122 ft | 489 kts | 224° |
| 2026-05-08 21:39 | 50.90069 | 4.72027 | 33126 ft | 489 kts | 224° |
| 2026-05-08 21:39 | 50.84820 | 4.65164 | 33126 ft | 489 kts | 224° |
| 2026-05-08 21:40 | 50.79571 | 4.58323 | 33124 ft | 489 kts | 224° |
| 2026-05-08 21:40 | 50.74336 | 4.51520 | 33123 ft | 489 kts | 224° |
| 2026-05-08 21:41 | 50.66428 | 4.41283 | 33116 ft | 488 kts | 224° |
| 2026-05-08 21:41 | 50.61185 | 4.34522 | 33122 ft | 488 kts | 223° |
| 2026-05-08 21:42 | 50.55952 | 4.27792 | 33122 ft | 488 kts | 223° |
| 2026-05-08 21:42 | 50.50676 | 4.21027 | 33123 ft | 487 kts | 223° |
| 2026-05-08 21:43 | 50.46323 | 4.15461 | 33118 ft | 487 kts | 223° |
| 2026-05-08 21:43 | 50.41076 | 4.08770 | 33112 ft | 486 kts | 223° |
| 2026-05-08 21:44 | 50.35827 | 4.02095 | 33117 ft | 486 kts | 223° |
| 2026-05-08 21:44 | 50.30559 | 3.95417 | 33106 ft | 485 kts | 223° |
| 2026-05-08 21:45 | 50.25328 | 3.88804 | 33088 ft | 484 kts | 223° |
| 2026-05-08 21:45 | 50.20093 | 3.82206 | 33100 ft | 484 kts | 223° |
| 2026-05-08 21:46 | 50.14868 | 3.75639 | 32804 ft | 483 kts | 223° |
| 2026-05-08 21:46 | 50.12246 | 3.72351 | 32267 ft | 483 kts | 223° |
| 2026-05-08 21:46 | 50.09717 | 3.69183 | 31545 ft | 483 kts | 223° |
| 2026-05-08 21:47 | 50.07124 | 3.65941 | 30802 ft | 482 kts | 223° |
| 2026-05-08 21:47 | 50.04506 | 3.62672 | 30048 ft | 478 kts | 223° |
| 2026-05-08 21:47 | 50.01912 | 3.59438 | 29199 ft | 474 kts | 222° |
| 2026-05-08 21:47 | 49.99375 | 3.56277 | 28392 ft | 469 kts | 222° |
| 2026-05-08 21:48 | 49.96826 | 3.53105 | 27589 ft | 465 kts | 222° |
| 2026-05-08 21:48 | 49.94330 | 3.50002 | 26819 ft | 460 kts | 221° |
| 2026-05-08 21:48 | 49.91831 | 3.46900 | 26065 ft | 456 kts | 221° |
| 2026-05-08 21:48 | 49.89380 | 3.43861 | 25334 ft | 452 kts | 221° |
| 2026-05-08 21:49 | 49.86926 | 3.40824 | 24616 ft | 448 kts | 220° |
| 2026-05-08 21:49 | 49.84513 | 3.37842 | 23914 ft | 444 kts | 220° |
| 2026-05-08 21:49 | 49.82094 | 3.34856 | 23141 ft | 441 kts | 220° |
| 2026-05-08 21:49 | 49.79706 | 3.31913 | 22334 ft | 437 kts | 220° |
| 2026-05-08 21:50 | 49.77328 | 3.28986 | 21542 ft | 432 kts | 219° |
| 2026-05-08 21:50 | 49.75009 | 3.26135 | 20781 ft | 428 kts | 219° |
| 2026-05-08 21:50 | 49.72683 | 3.23281 | 20030 ft | 423 kts | 219° |
| 2026-05-08 21:50 | 49.70378 | 3.20453 | 19295 ft | 418 kts | 218° |
| 2026-05-08 21:51 | 49.68132 | 3.17700 | 18589 ft | 413 kts | 218° |
| 2026-05-08 21:51 | 49.65884 | 3.14951 | 17812 ft | 408 kts | 218° |
| 2026-05-08 21:51 | 49.63684 | 3.12267 | 17021 ft | 403 kts | 218° |
| 2026-05-08 21:51 | 49.61488 | 3.09592 | 16244 ft | 398 kts | 218° |
| 2026-05-08 21:52 | 49.59348 | 3.06987 | 15498 ft | 393 kts | 218° |
| 2026-05-08 21:52 | 49.57285 | 3.04478 | 14784 ft | 389 kts | 218° |
| 2026-05-08 21:52 | 49.55131 | 3.01863 | 14041 ft | 384 kts | 218° |
| 2026-05-08 21:52 | 49.53045 | 2.99334 | 13265 ft | 380 kts | 218° |
| 2026-05-08 21:53 | 49.50982 | 2.96835 | 12569 ft | 374 kts | 218° |
| 2026-05-08 21:53 | 49.48986 | 2.94420 | 12381 ft | 356 kts | 218° |
| 2026-05-08 21:53 | 49.47072 | 2.92107 | 12223 ft | 349 kts | 218° |
| 2026-05-08 21:53 | 49.45153 | 2.89789 | 12098 ft | 351 kts | 218° |
| 2026-05-08 21:54 | 49.43234 | 2.87473 | 12014 ft | 349 kts | 218° |
| 2026-05-08 21:54 | 49.41318 | 2.85162 | 11928 ft | 351 kts | 218° |
| 2026-05-08 21:54 | 49.39400 | 2.82852 | 11586 ft | 350 kts | 218° |
| 2026-05-08 21:54 | 49.37500 | 2.80566 | 11231 ft | 345 kts | 218° |
| 2026-05-08 21:55 | 49.35615 | 2.78299 | 11084 ft | 344 kts | 218° |
| 2026-05-08 21:55 | 49.33727 | 2.76031 | 11013 ft | 345 kts | 218° |
| 2026-05-08 21:55 | 49.31838 | 2.73763 | 11004 ft | 345 kts | 218° |
| 2026-05-08 21:56 | 49.30589 | 2.72263 | 11004 ft | 345 kts | 218° |
| 2026-05-08 21:56 | 49.29362 | 2.70791 | 11007 ft | 344 kts | 218° |
| 2026-05-08 21:56 | 49.28098 | 2.69276 | 11005 ft | 345 kts | 218° |
| 2026-05-08 21:56 | 49.26334 | 2.66810 | 11001 ft | 344 kts | 232° |
| 2026-05-08 21:57 | 49.25100 | 2.63671 | 11000 ft | 344 kts | 242° |
| 2026-05-08 21:57 | 49.23965 | 2.60440 | 11004 ft | 344 kts | 242° |
| 2026-05-08 21:57 | 49.22828 | 2.57200 | 11001 ft | 344 kts | 242° |
| 2026-05-08 21:57 | 49.21691 | 2.53960 | 11004 ft | 344 kts | 242° |
| 2026-05-08 21:58 | 49.20568 | 2.50765 | 10929 ft | 345 kts | 242° |
| 2026-05-08 21:58 | 49.19437 | 2.47552 | 10604 ft | 344 kts | 242° |
| 2026-05-08 21:58 | 49.18307 | 2.44339 | 10254 ft | 340 kts | 242° |
| 2026-05-08 21:58 | 49.17185 | 2.41149 | 9866 ft | 339 kts | 242° |
| 2026-05-08 21:59 | 49.16064 | 2.37961 | 9469 ft | 338 kts | 242° |
| 2026-05-08 21:59 | 49.14985 | 2.34887 | 9085 ft | 335 kts | 242° |
| 2026-05-08 21:59 | 49.13883 | 2.31746 | 8668 ft | 334 kts | 242° |
| 2026-05-08 21:59 | 49.12785 | 2.28613 | 8292 ft | 332 kts | 242° |
| 2026-05-08 22:00 | 49.11696 | 2.25508 | 7911 ft | 331 kts | 242° |
| 2026-05-08 22:00 | 49.10611 | 2.22416 | 7538 ft | 330 kts | 242° |
| 2026-05-08 22:00 | 49.09542 | 2.19364 | 7168 ft | 328 kts | 242° |
| 2026-05-08 22:00 | 49.08461 | 2.16288 | 6794 ft | 327 kts | 242° |
| 2026-05-08 22:01 | 49.07387 | 2.13233 | 6429 ft | 325 kts | 242° |
| 2026-05-08 22:01 | 49.06312 | 2.10197 | 6033 ft | 325 kts | 239° |
| 2026-05-08 22:01 | 49.04900 | 2.07711 | 5662 ft | 323 kts | 217° |
| 2026-05-08 22:01 | 49.02871 | 2.06177 | 5281 ft | 321 kts | 193° |
| 2026-05-08 22:02 | 49.00683 | 2.06003 | 4915 ft | 312 kts | 170° |
| 2026-05-08 22:02 | 48.98714 | 2.07134 | 4530 ft | 303 kts | 146° |
| 2026-05-08 22:02 | 48.97235 | 2.09340 | 4193 ft | 293 kts | 127° |
| 2026-05-08 22:02 | 48.96160 | 2.11883 | 4035 ft | 278 kts | 111° |
| 2026-05-08 22:03 | 48.95858 | 2.14674 | 3808 ft | 268 kts | 86° |
| 2026-05-08 22:03 | 48.96348 | 2.17379 | 3434 ft | 265 kts | 63° |
| 2026-05-08 22:03 | 48.97256 | 2.19809 | 3127 ft | 259 kts | 62° |
| 2026-05-08 22:03 | 48.98108 | 2.22131 | 3007 ft | 250 kts | 62° |
| 2026-05-08 22:04 | 48.98972 | 2.24486 | 2993 ft | 254 kts | 62° |
| 2026-05-08 22:04 | 48.99832 | 2.26827 | 2995 ft | 253 kts | 62° |
| 2026-05-08 22:04 | 49.00674 | 2.29116 | 2987 ft | 240 kts | 62° |
| 2026-05-08 22:04 | 49.01401 | 2.31282 | 2977 ft | 225 kts | 73° |
| 2026-05-08 22:05 | 49.01607 | 2.33616 | 2723 ft | 222 kts | 86° |
| 2026-05-08 22:05 | 49.01689 | 2.35990 | 2346 ft | 225 kts | 87° |
| 2026-05-08 22:05 | 49.01762 | 2.38377 | 2069 ft | 219 kts | 87° |
| 2026-05-08 22:05 | 49.01827 | 2.40474 | 1994 ft | 193 kts | 87° |
| 2026-05-08 22:06 | 49.01905 | 2.42418 | 1865 ft | 175 kts | 85° |
| 2026-05-08 22:06 | 49.02012 | 2.44137 | 1779 ft | 163 kts | 84° |
| 2026-05-08 22:06 | 49.02123 | 2.45894 | 1565 ft | 167 kts | 85° |
| 2026-05-08 22:06 | 49.02197 | 2.47652 | 1270 ft | 176 kts | 85° |
| 2026-05-08 22:07 | 49.02319 | 2.49591 | 957 ft | 181 kts | 84° |
| 2026-05-08 22:07 | 49.02418 | 2.51415 | 604 ft | 166 kts | 84° |
| 2026-05-08 22:07 | 49.02504 | 2.53101 | 358 ft | 150 kts | 84° |
| 2026-05-08 22:07 | 49.02581 | 2.54425 | 360 ft | 98 kts | 84° |
| 2026-05-08 22:08 | 49.02604 | 2.55081 | 354 ft | 36 kts | 96° |
| 2026-05-08 22:08 | 49.02576 | 2.55284 | 363 ft | 16 kts | 110° |
| 2026-05-08 22:08 | 49.02540 | 2.55397 | 357 ft | 9 kts | 117° |
| 2026-05-08 22:08 | 49.02504 | 2.55499 | 359 ft | 12 kts | 118° |
| 2026-05-08 22:09 | 49.02454 | 2.55597 | 355 ft | 13 kts | 153° |
| 2026-05-08 22:09 | 49.02393 | 2.55616 | 355 ft | 0 kts | 174° |
| 2026-05-08 22:10 | 49.02376 | 2.55618 | 356 ft | 7 kts | 176° |
| 2026-05-08 22:10 | 49.02302 | 2.55626 | 360 ft | 16 kts | 175° |
| 2026-05-08 22:10 | 49.02197 | 2.55641 | 358 ft | 13 kts | 175° |
| 2026-05-08 22:11 | 49.02121 | 2.55644 | 354 ft | 12 kts | 192° |
| 2026-05-08 22:11 | 49.02067 | 2.55536 | 357 ft | 16 kts | 259° |
| 2026-05-08 22:11 | 49.01981 | 2.55457 | 357 ft | 17 kts | 173° |